sensor_id;sensor_type;location;lat;lon;timestamp;P1;durP1;ratioP1;P2;durP2;ratioP2
16524;SDS011;8375;33.594;-117.718;2023-12-14T00:01:21;14.27;;;4.67;;
16524;SDS011;8375;33.594;-117.718;2023-12-14T00:03:49;14.87;;;4.53;;
16524;SDS011;8375;33.594;-117.718;2023-12-14T00:06:18;9.63;;;4.50;;
16524;SDS011;8375;33.594;-117.718;2023-12-14T00:08:49;15.93;;;5.50;;
16524;SDS011;8375;33.594;-117.718;2023-12-14T00:11:17;14.00;;;5.73;;
16524;SDS011;8375;33.594;-117.718;2023-12-14T00:13:46;10.77;;;4.63;;
16524;SDS011;8375;33.594;-117.718;2023-12-14T00:16:14;15.33;;;5.13;;
16524;SDS011;8375;33.594;-117.718;2023-12-14T00:18:43;17.47;;;5.10;;
16524;SDS011;8375;33.594;-117.718;2023-12-14T00:21:12;14.50;;;4.93;;
16524;SDS011;8375;33.594;-117.718;2023-12-14T00:23:40;14.13;;;5.20;;
16524;SDS011;8375;33.594;-117.718;2023-12-14T00:26:11;14.20;;;5.27;;
16524;SDS011;8375;33.594;-117.718;2023-12-14T00:28:39;13.00;;;5.07;;
16524;SDS011;8375;33.594;-117.718;2023-12-14T00:31:08;12.73;;;5.23;;
16524;SDS011;8375;33.594;-117.718;2023-12-14T00:33:36;12.50;;;5.47;;
16524;SDS011;8375;33.594;-117.718;2023-12-14T02:27:53;16.20;;;6.67;;
16524;SDS011;8375;33.594;-117.718;2023-12-14T02:30:22;20.23;;;6.93;;
16524;SDS011;8375;33.594;-117.718;2023-12-14T02:32:50;16.47;;;7.40;;
16524;SDS011;8375;33.594;-117.718;2023-12-14T02:35:19;14.07;;;7.00;;
16524;SDS011;8375;33.594;-117.718;2023-12-14T02:37:48;15.60;;;7.27;;
16524;SDS011;8375;33.594;-117.718;2023-12-14T02:40:16;12.20;;;6.50;;
16524;SDS011;8375;33.594;-117.718;2023-12-14T02:42:45;13.83;;;6.73;;
16524;SDS011;8375;33.594;-117.718;2023-12-14T02:45:15;16.63;;;6.67;;
16524;SDS011;8375;33.594;-117.718;2023-12-14T02:47:44;13.40;;;7.27;;
16524;SDS011;8375;33.594;-117.718;2023-12-14T02:50:14;13.93;;;7.30;;
16524;SDS011;8375;33.594;-117.718;2023-12-14T02:52:42;16.33;;;7.20;;
16524;SDS011;8375;33.594;-117.718;2023-12-14T02:55:11;13.40;;;7.47;;
16524;SDS011;8375;33.594;-117.718;2023-12-14T02:57:39;13.57;;;6.43;;
16524;SDS011;8375;33.594;-117.718;2023-12-14T03:00:09;17.67;;;7.10;;
16524;SDS011;8375;33.594;-117.718;2023-12-14T03:02:40;15.70;;;6.73;;
16524;SDS011;8375;33.594;-117.718;2023-12-14T03:05:08;14.97;;;7.80;;
16524;SDS011;8375;33.594;-117.718;2023-12-14T03:07:37;13.30;;;6.67;;
16524;SDS011;8375;33.594;-117.718;2023-12-14T03:10:06;12.63;;;6.37;;
16524;SDS011;8375;33.594;-117.718;2023-12-14T03:12:36;13.53;;;7.07;;
16524;SDS011;8375;33.594;-117.718;2023-12-14T03:15:05;12.63;;;6.23;;
16524;SDS011;8375;33.594;-117.718;2023-12-14T03:17:34;16.67;;;7.03;;
16524;SDS011;8375;33.594;-117.718;2023-12-14T03:20:05;14.23;;;6.90;;
16524;SDS011;8375;33.594;-117.718;2023-12-14T03:22:34;14.60;;;7.77;;
16524;SDS011;8375;33.594;-117.718;2023-12-14T03:25:04;15.17;;;7.47;;
16524;SDS011;8375;33.594;-117.718;2023-12-14T03:27:33;12.77;;;6.53;;
16524;SDS011;8375;33.594;-117.718;2023-12-14T03:30:02;16.77;;;7.97;;
16524;SDS011;8375;33.594;-117.718;2023-12-14T03:32:33;16.67;;;8.10;;
16524;SDS011;8375;33.594;-117.718;2023-12-14T03:35:02;19.83;;;8.00;;
16524;SDS011;8375;33.594;-117.718;2023-12-14T03:37:34;17.00;;;6.90;;
16524;SDS011;8375;33.594;-117.718;2023-12-14T03:40:03;14.97;;;7.00;;
16524;SDS011;8375;33.594;-117.718;2023-12-14T03:42:32;18.77;;;8.10;;
16524;SDS011;8375;33.594;-117.718;2023-12-14T03:45:00;18.80;;;8.20;;
16524;SDS011;8375;33.594;-117.718;2023-12-14T03:47:30;15.73;;;6.83;;
16524;SDS011;8375;33.594;-117.718;2023-12-14T03:49:58;14.77;;;8.13;;
16524;SDS011;8375;33.594;-117.718;2023-12-14T03:52:28;17.87;;;8.13;;
16524;SDS011;8375;33.594;-117.718;2023-12-14T03:54:57;16.03;;;7.53;;
16524;SDS011;8375;33.594;-117.718;2023-12-14T03:57:25;13.13;;;7.90;;
16524;SDS011;8375;33.594;-117.718;2023-12-14T03:59:54;18.53;;;9.60;;
16524;SDS011;8375;33.594;-117.718;2023-12-14T04:02:23;17.23;;;9.80;;
16524;SDS011;8375;33.594;-117.718;2023-12-14T04:04:51;13.53;;;8.77;;
16524;SDS011;8375;33.594;-117.718;2023-12-14T04:07:20;16.97;;;8.53;;
16524;SDS011;8375;33.594;-117.718;2023-12-14T04:09:50;15.13;;;8.37;;
16524;SDS011;8375;33.594;-117.718;2023-12-14T04:12:19;10.40;;;8.67;;
16524;SDS011;8375;33.594;-117.718;2023-12-14T04:14:47;19.97;;;8.97;;
16524;SDS011;8375;33.594;-117.718;2023-12-14T04:17:16;16.73;;;7.93;;
16524;SDS011;8375;33.594;-117.718;2023-12-14T04:19:45;13.93;;;7.73;;
16524;SDS011;8375;33.594;-117.718;2023-12-14T04:22:13;13.93;;;7.17;;
16524;SDS011;8375;33.594;-117.718;2023-12-14T04:24:42;17.83;;;7.77;;
16524;SDS011;8375;33.594;-117.718;2023-12-14T04:27:12;19.67;;;8.13;;
16524;SDS011;8375;33.594;-117.718;2023-12-14T04:29:41;16.77;;;8.47;;
16524;SDS011;8375;33.594;-117.718;2023-12-14T04:32:09;15.03;;;7.63;;
16524;SDS011;8375;33.594;-117.718;2023-12-14T04:34:38;14.90;;;7.70;;
16524;SDS011;8375;33.594;-117.718;2023-12-14T04:37:07;14.97;;;7.60;;
16524;SDS011;8375;33.594;-117.718;2023-12-14T04:39:35;14.10;;;7.90;;
16524;SDS011;8375;33.594;-117.718;2023-12-14T04:42:04;15.60;;;8.07;;
16524;SDS011;8375;33.594;-117.718;2023-12-14T04:44:34;11.43;;;7.87;;
16524;SDS011;8375;33.594;-117.718;2023-12-14T04:47:03;16.30;;;8.93;;
16524;SDS011;8375;33.594;-117.718;2023-12-14T04:49:32;13.90;;;8.77;;
16524;SDS011;8375;33.594;-117.718;2023-12-14T04:52:01;16.17;;;7.63;;
16524;SDS011;8375;33.594;-117.718;2023-12-14T04:54:29;14.27;;;8.03;;
16524;SDS011;8375;33.594;-117.718;2023-12-14T04:56:58;16.97;;;7.63;;
16524;SDS011;8375;33.594;-117.718;2023-12-14T04:59:27;15.93;;;8.10;;
16524;SDS011;8375;33.594;-117.718;2023-12-14T05:01:57;16.77;;;9.57;;
16524;SDS011;8375;33.594;-117.718;2023-12-14T05:04:25;14.07;;;8.37;;
16524;SDS011;8375;33.594;-117.718;2023-12-14T05:06:54;13.63;;;8.47;;
16524;SDS011;8375;33.594;-117.718;2023-12-14T05:09:22;13.57;;;8.73;;
16524;SDS011;8375;33.594;-117.718;2023-12-14T05:11:54;21.17;;;9.90;;
16524;SDS011;8375;33.594;-117.718;2023-12-14T05:14:22;18.90;;;9.57;;
16524;SDS011;8375;33.594;-117.718;2023-12-14T05:16:53;14.13;;;10.37;;
16524;SDS011;8375;33.594;-117.718;2023-12-14T05:19:23;19.10;;;9.30;;
16524;SDS011;8375;33.594;-117.718;2023-12-14T05:21:52;16.07;;;9.03;;
16524;SDS011;8375;33.594;-117.718;2023-12-14T05:24:21;18.57;;;9.37;;
16524;SDS011;8375;33.594;-117.718;2023-12-14T05:26:49;16.80;;;10.00;;
16524;SDS011;8375;33.594;-117.718;2023-12-14T05:54:46;19.87;;;10.73;;
16524;SDS011;8375;33.594;-117.718;2023-12-14T05:57:15;20.10;;;10.90;;
16524;SDS011;8375;33.594;-117.718;2023-12-14T05:59:44;22.57;;;10.50;;
16524;SDS011;8375;33.594;-117.718;2023-12-14T06:02:12;17.37;;;10.53;;
16524;SDS011;8375;33.594;-117.718;2023-12-14T06:04:41;20.97;;;12.20;;
16524;SDS011;8375;33.594;-117.718;2023-12-14T06:07:10;21.90;;;12.17;;
16524;SDS011;8375;33.594;-117.718;2023-12-14T06:09:39;20.93;;;10.83;;
16524;SDS011;8375;33.594;-117.718;2023-12-14T06:12:09;24.50;;;11.63;;
16524;SDS011;8375;33.594;-117.718;2023-12-14T06:14:39;18.33;;;11.43;;
16524;SDS011;8375;33.594;-117.718;2023-12-14T06:17:07;16.43;;;11.10;;
16524;SDS011;8375;33.594;-117.718;2023-12-14T06:19:36;17.80;;;10.23;;
16524;SDS011;8375;33.594;-117.718;2023-12-14T06:22:04;18.57;;;11.33;;
16524;SDS011;8375;33.594;-117.718;2023-12-14T06:24:33;18.17;;;11.10;;
16524;SDS011;8375;33.594;-117.718;2023-12-14T06:27:01;15.23;;;10.50;;
16524;SDS011;8375;33.594;-117.718;2023-12-14T06:29:32;18.33;;;11.47;;
16524;SDS011;8375;33.594;-117.718;2023-12-14T06:32:01;17.63;;;11.23;;
16524;SDS011;8375;33.594;-117.718;2023-12-14T06:34:29;20.70;;;12.77;;
16524;SDS011;8375;33.594;-117.718;2023-12-14T06:36:58;20.10;;;12.00;;
16524;SDS011;8375;33.594;-117.718;2023-12-14T06:39:28;16.00;;;12.00;;
16524;SDS011;8375;33.594;-117.718;2023-12-14T06:41:57;22.07;;;12.70;;
16524;SDS011;8375;33.594;-117.718;2023-12-14T06:44:25;17.93;;;12.47;;
16524;SDS011;8375;33.594;-117.718;2023-12-14T06:46:57;21.40;;;11.70;;
16524;SDS011;8375;33.594;-117.718;2023-12-14T06:49:26;17.17;;;10.73;;
16524;SDS011;8375;33.594;-117.718;2023-12-14T06:51:55;15.70;;;11.37;;
16524;SDS011;8375;33.594;-117.718;2023-12-14T06:54:23;16.47;;;11.00;;
16524;SDS011;8375;33.594;-117.718;2023-12-14T06:56:52;18.97;;;11.23;;
16524;SDS011;8375;33.594;-117.718;2023-12-14T06:59:21;19.27;;;12.27;;
16524;SDS011;8375;33.594;-117.718;2023-12-14T07:01:49;16.60;;;11.23;;
16524;SDS011;8375;33.594;-117.718;2023-12-14T07:04:20;21.63;;;12.03;;
16524;SDS011;8375;33.594;-117.718;2023-12-14T07:06:51;18.87;;;12.33;;
16524;SDS011;8375;33.594;-117.718;2023-12-14T07:09:20;19.67;;;12.10;;
16524;SDS011;8375;33.594;-117.718;2023-12-14T07:11:49;23.27;;;13.50;;
16524;SDS011;8375;33.594;-117.718;2023-12-14T07:14:18;22.93;;;13.23;;
16524;SDS011;8375;33.594;-117.718;2023-12-14T07:16:46;22.43;;;13.63;;
16524;SDS011;8375;33.594;-117.718;2023-12-14T07:19:15;20.40;;;13.83;;
16524;SDS011;8375;33.594;-117.718;2023-12-14T07:21:45;20.30;;;12.87;;
16524;SDS011;8375;33.594;-117.718;2023-12-14T07:24:14;21.10;;;12.63;;
16524;SDS011;8375;33.594;-117.718;2023-12-14T07:26:42;20.00;;;11.00;;
16524;SDS011;8375;33.594;-117.718;2023-12-14T07:29:11;18.90;;;11.30;;
16524;SDS011;8375;33.594;-117.718;2023-12-14T07:31:39;16.10;;;11.33;;
16524;SDS011;8375;33.594;-117.718;2023-12-14T07:34:08;23.73;;;12.37;;
16524;SDS011;8375;33.594;-117.718;2023-12-14T07:36:36;23.90;;;12.67;;
16524;SDS011;8375;33.594;-117.718;2023-12-14T07:39:07;21.57;;;12.73;;
16524;SDS011;8375;33.594;-117.718;2023-12-14T07:41:36;22.67;;;12.73;;
16524;SDS011;8375;33.594;-117.718;2023-12-14T07:44:04;19.53;;;12.13;;
16524;SDS011;8375;33.594;-117.718;2023-12-14T07:46:33;20.73;;;13.83;;
16524;SDS011;8375;33.594;-117.718;2023-12-14T07:49:05;16.17;;;13.13;;
16524;SDS011;8375;33.594;-117.718;2023-12-14T07:51:33;20.77;;;13.13;;
16524;SDS011;8375;33.594;-117.718;2023-12-14T09:07:17;19.13;;;12.70;;
16524;SDS011;8375;33.594;-117.718;2023-12-14T09:09:45;21.23;;;13.90;;
16524;SDS011;8375;33.594;-117.718;2023-12-14T09:12:14;18.00;;;14.00;;
16524;SDS011;8375;33.594;-117.718;2023-12-14T09:14:42;23.73;;;13.43;;
16524;SDS011;8375;33.594;-117.718;2023-12-14T09:17:11;19.43;;;13.70;;
16524;SDS011;8375;33.594;-117.718;2023-12-14T09:19:40;20.27;;;13.50;;
16524;SDS011;8375;33.594;-117.718;2023-12-14T09:22:08;18.13;;;12.30;;
16524;SDS011;8375;33.594;-117.718;2023-12-14T09:24:38;21.17;;;12.70;;
16524;SDS011;8375;33.594;-117.718;2023-12-14T09:27:07;16.47;;;12.60;;
16524;SDS011;8375;33.594;-117.718;2023-12-14T09:29:36;20.13;;;12.57;;
16524;SDS011;8375;33.594;-117.718;2023-12-14T09:32:04;18.30;;;12.60;;
16524;SDS011;8375;33.594;-117.718;2023-12-14T09:34:36;18.17;;;12.20;;
16524;SDS011;8375;33.594;-117.718;2023-12-14T09:37:04;15.87;;;11.63;;
16524;SDS011;8375;33.594;-117.718;2023-12-14T09:39:33;18.07;;;12.17;;
16524;SDS011;8375;33.594;-117.718;2023-12-14T09:42:04;15.77;;;12.17;;
16524;SDS011;8375;33.594;-117.718;2023-12-14T09:44:34;15.50;;;12.33;;
16524;SDS011;8375;33.594;-117.718;2023-12-14T09:47:04;20.50;;;12.10;;
16524;SDS011;8375;33.594;-117.718;2023-12-14T09:49:33;18.37;;;12.37;;
16524;SDS011;8375;33.594;-117.718;2023-12-14T09:52:03;19.37;;;12.67;;
16524;SDS011;8375;33.594;-117.718;2023-12-14T09:54:32;20.67;;;12.53;;
16524;SDS011;8375;33.594;-117.718;2023-12-14T09:57:00;19.03;;;11.67;;
16524;SDS011;8375;33.594;-117.718;2023-12-14T09:59:31;18.83;;;12.40;;
16524;SDS011;8375;33.594;-117.718;2023-12-14T10:02:09;13.63;;;11.90;;
16524;SDS011;8375;33.594;-117.718;2023-12-14T10:04:38;15.93;;;11.23;;
16524;SDS011;8375;33.594;-117.718;2023-12-14T10:07:07;15.83;;;11.87;;
16524;SDS011;8375;33.594;-117.718;2023-12-14T10:09:36;16.17;;;11.10;;
16524;SDS011;8375;33.594;-117.718;2023-12-14T10:12:07;13.23;;;10.93;;
16524;SDS011;8375;33.594;-117.718;2023-12-14T10:14:37;16.17;;;10.93;;
16524;SDS011;8375;33.594;-117.718;2023-12-14T10:17:16;16.90;;;10.77;;
16524;SDS011;8375;33.594;-117.718;2023-12-14T10:19:46;16.07;;;10.83;;
16524;SDS011;8375;33.594;-117.718;2023-12-14T10:22:15;14.47;;;10.73;;
16524;SDS011;8375;33.594;-117.718;2023-12-14T10:24:44;18.63;;;11.37;;
16524;SDS011;8375;33.594;-117.718;2023-12-14T10:27:17;15.70;;;11.37;;
16524;SDS011;8375;33.594;-117.718;2023-12-14T10:29:45;14.87;;;10.00;;
16524;SDS011;8375;33.594;-117.718;2023-12-14T10:32:16;18.40;;;11.40;;
16524;SDS011;8375;33.594;-117.718;2023-12-14T10:34:46;13.87;;;10.80;;
16524;SDS011;8375;33.594;-117.718;2023-12-14T10:37:14;15.20;;;10.37;;
16524;SDS011;8375;33.594;-117.718;2023-12-14T10:39:44;17.73;;;11.00;;
16524;SDS011;8375;33.594;-117.718;2023-12-14T10:42:14;18.60;;;11.37;;
16524;SDS011;8375;33.594;-117.718;2023-12-14T10:44:51;12.97;;;9.90;;
16524;SDS011;8375;33.594;-117.718;2023-12-14T10:47:21;19.23;;;11.17;;
16524;SDS011;8375;33.594;-117.718;2023-12-14T10:49:50;15.77;;;11.70;;
16524;SDS011;8375;33.594;-117.718;2023-12-14T10:52:18;19.03;;;12.23;;
16524;SDS011;8375;33.594;-117.718;2023-12-14T10:54:49;21.33;;;12.27;;
16524;SDS011;8375;33.594;-117.718;2023-12-14T10:57:23;18.93;;;12.37;;
16524;SDS011;8375;33.594;-117.718;2023-12-14T10:59:55;26.70;;;12.90;;
16524;SDS011;8375;33.594;-117.718;2023-12-14T11:02:26;26.67;;;13.40;;
16524;SDS011;8375;33.594;-117.718;2023-12-14T11:22:55;17.83;;;11.73;;
16524;SDS011;8375;33.594;-117.718;2023-12-14T11:25:23;15.57;;;13.10;;
16524;SDS011;8375;33.594;-117.718;2023-12-14T11:27:52;19.10;;;11.73;;
16524;SDS011;8375;33.594;-117.718;2023-12-14T11:30:30;19.97;;;10.93;;
16524;SDS011;8375;33.594;-117.718;2023-12-14T11:32:59;20.47;;;11.17;;
16524;SDS011;8375;33.594;-117.718;2023-12-14T11:35:29;15.83;;;9.80;;
16524;SDS011;8375;33.594;-117.718;2023-12-14T11:37:57;15.97;;;10.93;;
16524;SDS011;8375;33.594;-117.718;2023-12-14T11:40:28;15.73;;;10.47;;
16524;SDS011;8375;33.594;-117.718;2023-12-14T11:42:57;15.20;;;10.33;;
16524;SDS011;8375;33.594;-117.718;2023-12-14T11:45:26;15.40;;;10.63;;
16524;SDS011;8375;33.594;-117.718;2023-12-14T11:47:55;16.20;;;10.80;;
16524;SDS011;8375;33.594;-117.718;2023-12-14T11:50:24;14.90;;;10.90;;
16524;SDS011;8375;33.594;-117.718;2023-12-14T11:52:57;14.90;;;10.53;;
16524;SDS011;8375;33.594;-117.718;2023-12-14T11:55:26;16.07;;;10.53;;
16524;SDS011;8375;33.594;-117.718;2023-12-14T11:57:56;16.77;;;10.83;;
16524;SDS011;8375;33.594;-117.718;2023-12-14T12:00:25;16.80;;;11.30;;
16524;SDS011;8375;33.594;-117.718;2023-12-14T12:03:06;16.90;;;10.43;;
16524;SDS011;8375;33.594;-117.718;2023-12-14T12:05:36;18.17;;;11.67;;
16524;SDS011;8375;33.594;-117.718;2023-12-14T12:08:07;18.83;;;11.40;;
16524;SDS011;8375;33.594;-117.718;2023-12-14T12:10:37;18.10;;;10.33;;
16524;SDS011;8375;33.594;-117.718;2023-12-14T12:13:07;19.37;;;11.43;;
16524;SDS011;8375;33.594;-117.718;2023-12-14T12:15:39;22.53;;;12.67;;
16524;SDS011;8375;33.594;-117.718;2023-12-14T12:18:08;19.90;;;12.83;;
16524;SDS011;8375;33.594;-117.718;2023-12-14T12:20:38;19.77;;;11.73;;
16524;SDS011;8375;33.594;-117.718;2023-12-14T12:23:08;20.43;;;12.57;;
16524;SDS011;8375;33.594;-117.718;2023-12-14T12:25:37;20.63;;;12.90;;
16524;SDS011;8375;33.594;-117.718;2023-12-14T12:28:05;22.87;;;12.50;;
16524;SDS011;8375;33.594;-117.718;2023-12-14T12:30:34;27.43;;;12.70;;
16524;SDS011;8375;33.594;-117.718;2023-12-14T12:33:03;25.17;;;12.43;;
16524;SDS011;8375;33.594;-117.718;2023-12-14T12:35:31;30.77;;;13.50;;
16524;SDS011;8375;33.594;-117.718;2023-12-14T12:38:01;28.00;;;14.00;;
16524;SDS011;8375;33.594;-117.718;2023-12-14T12:40:31;29.73;;;14.80;;
16524;SDS011;8375;33.594;-117.718;2023-12-14T12:42:59;41.13;;;13.33;;
16524;SDS011;8375;33.594;-117.718;2023-12-14T12:45:29;28.93;;;13.73;;
16524;SDS011;8375;33.594;-117.718;2023-12-14T12:47:57;35.67;;;13.60;;
16524;SDS011;8375;33.594;-117.718;2023-12-14T12:50:28;36.47;;;13.43;;
16524;SDS011;8375;33.594;-117.718;2023-12-14T12:52:57;42.40;;;13.90;;
16524;SDS011;8375;33.594;-117.718;2023-12-14T12:55:26;36.07;;;12.93;;
16524;SDS011;8375;33.594;-117.718;2023-12-14T12:57:56;27.90;;;13.87;;
16524;SDS011;8375;33.594;-117.718;2023-12-14T13:00:30;43.37;;;14.53;;
16524;SDS011;8375;33.594;-117.718;2023-12-14T13:03:01;51.40;;;13.03;;
16524;SDS011;8375;33.594;-117.718;2023-12-14T13:05:30;48.03;;;13.73;;
16524;SDS011;8375;33.594;-117.718;2023-12-14T13:07:58;26.73;;;13.10;;
16524;SDS011;8375;33.594;-117.718;2023-12-14T13:10:27;30.97;;;13.90;;
16524;SDS011;8375;33.594;-117.718;2023-12-14T13:12:57;22.27;;;12.33;;
16524;SDS011;8375;33.594;-117.718;2023-12-14T13:15:26;19.80;;;12.70;;
16524;SDS011;8375;33.594;-117.718;2023-12-14T13:17:56;21.17;;;12.37;;
16524;SDS011;8375;33.594;-117.718;2023-12-14T14:13:22;25.37;;;13.93;;
16524;SDS011;8375;33.594;-117.718;2023-12-14T14:15:51;19.43;;;13.23;;
16524;SDS011;8375;33.594;-117.718;2023-12-14T14:18:20;20.97;;;13.63;;
16524;SDS011;8375;33.594;-117.718;2023-12-14T14:20:48;19.27;;;13.10;;
16524;SDS011;8375;33.594;-117.718;2023-12-14T14:23:17;18.17;;;12.83;;
16524;SDS011;8375;33.594;-117.718;2023-12-14T14:25:46;23.17;;;13.93;;
16524;SDS011;8375;33.594;-117.718;2023-12-14T14:28:19;22.87;;;13.73;;
16524;SDS011;8375;33.594;-117.718;2023-12-14T14:30:49;22.07;;;13.37;;
16524;SDS011;8375;33.594;-117.718;2023-12-14T14:33:18;18.33;;;12.27;;
16524;SDS011;8375;33.594;-117.718;2023-12-14T14:35:47;21.47;;;12.63;;
16524;SDS011;8375;33.594;-117.718;2023-12-14T14:38:16;21.77;;;12.73;;
16524;SDS011;8375;33.594;-117.718;2023-12-14T14:40:45;17.60;;;12.97;;
16524;SDS011;8375;33.594;-117.718;2023-12-14T14:43:14;17.83;;;12.80;;
16524;SDS011;8375;33.594;-117.718;2023-12-14T14:45:44;18.67;;;12.77;;
16524;SDS011;8375;33.594;-117.718;2023-12-14T14:48:12;16.87;;;11.97;;
16524;SDS011;8375;33.594;-117.718;2023-12-14T14:50:41;18.07;;;12.83;;
16524;SDS011;8375;33.594;-117.718;2023-12-14T14:53:10;19.60;;;12.67;;
16524;SDS011;8375;33.594;-117.718;2023-12-14T14:55:39;15.57;;;11.57;;
16524;SDS011;8375;33.594;-117.718;2023-12-14T14:58:08;17.93;;;12.17;;
16524;SDS011;8375;33.594;-117.718;2023-12-14T15:00:36;16.70;;;11.63;;
16524;SDS011;8375;33.594;-117.718;2023-12-14T15:03:07;14.77;;;11.93;;
16524;SDS011;8375;33.594;-117.718;2023-12-14T15:05:36;17.37;;;11.27;;
16524;SDS011;8375;33.594;-117.718;2023-12-14T15:08:05;14.13;;;10.97;;
16524;SDS011;8375;33.594;-117.718;2023-12-14T15:10:34;16.40;;;11.67;;
16524;SDS011;8375;33.594;-117.718;2023-12-14T15:13:02;15.67;;;11.07;;
16524;SDS011;8375;33.594;-117.718;2023-12-14T15:15:31;15.93;;;11.87;;
16524;SDS011;8375;33.594;-117.718;2023-12-14T15:17:59;15.83;;;10.70;;
16524;SDS011;8375;33.594;-117.718;2023-12-14T15:20:30;15.23;;;11.40;;
16524;SDS011;8375;33.594;-117.718;2023-12-14T15:22:58;18.63;;;12.87;;
16524;SDS011;8375;33.594;-117.718;2023-12-14T15:25:30;13.90;;;11.97;;
16524;SDS011;8375;33.594;-117.718;2023-12-14T15:27:59;14.63;;;11.70;;
16524;SDS011;8375;33.594;-117.718;2023-12-14T15:30:28;15.57;;;12.17;;
16524;SDS011;8375;33.594;-117.718;2023-12-14T15:32:56;30.93;;;13.80;;
16524;SDS011;8375;33.594;-117.718;2023-12-14T15:35:26;32.20;;;13.40;;
16524;SDS011;8375;33.594;-117.718;2023-12-14T15:37:56;28.63;;;12.87;;
16524;SDS011;8375;33.594;-117.718;2023-12-14T15:40:24;32.03;;;13.87;;
16524;SDS011;8375;33.594;-117.718;2023-12-14T15:42:54;33.43;;;13.47;;
16524;SDS011;8375;33.594;-117.718;2023-12-14T15:45:23;26.70;;;12.10;;
16524;SDS011;8375;33.594;-117.718;2023-12-14T15:47:53;35.03;;;13.33;;
16524;SDS011;8375;33.594;-117.718;2023-12-14T15:50:21;33.00;;;14.33;;
16524;SDS011;8375;33.594;-117.718;2023-12-14T15:52:50;33.17;;;14.93;;
16524;SDS011;8375;33.594;-117.718;2023-12-14T15:55:20;31.30;;;13.90;;
16524;SDS011;8375;33.594;-117.718;2023-12-14T15:57:50;32.53;;;14.37;;
16524;SDS011;8375;33.594;-117.718;2023-12-14T16:00:19;33.37;;;14.77;;
16524;SDS011;8375;33.594;-117.718;2023-12-14T16:02:48;32.63;;;15.77;;
16524;SDS011;8375;33.594;-117.718;2023-12-14T16:05:16;30.17;;;14.33;;
16524;SDS011;8375;33.594;-117.718;2023-12-14T16:07:45;37.63;;;14.07;;
16524;SDS011;8375;33.594;-117.718;2023-12-14T16:10:13;32.23;;;14.10;;
16524;SDS011;8375;33.594;-117.718;2023-12-14T18:45:24;4.90;;;2.13;;
16524;SDS011;8375;33.594;-117.718;2023-12-14T18:47:53;6.77;;;2.77;;
16524;SDS011;8375;33.594;-117.718;2023-12-14T18:50:21;5.40;;;2.00;;
16524;SDS011;8375;33.594;-117.718;2023-12-14T18:52:50;5.33;;;2.20;;
16524;SDS011;8375;33.594;-117.718;2023-12-14T18:55:22;4.63;;;1.80;;
16524;SDS011;8375;33.594;-117.718;2023-12-14T18:57:51;2.20;;;1.50;;
16524;SDS011;8375;33.594;-117.718;2023-12-14T19:00:20;2.53;;;1.37;;
16524;SDS011;8375;33.594;-117.718;2023-12-14T19:02:50;2.43;;;1.07;;
16524;SDS011;8375;33.594;-117.718;2023-12-14T19:05:19;0.90;;;0.67;;
16524;SDS011;8375;33.594;-117.718;2023-12-14T19:07:49;1.70;;;1.00;;
16524;SDS011;8375;33.594;-117.718;2023-12-14T19:10:18;1.83;;;0.90;;
16524;SDS011;8375;33.594;-117.718;2023-12-14T19:12:47;2.00;;;0.97;;
16524;SDS011;8375;33.594;-117.718;2023-12-14T19:15:16;4.00;;;0.87;;
16524;SDS011;8375;33.594;-117.718;2023-12-14T19:17:45;3.87;;;1.07;;
16524;SDS011;8375;33.594;-117.718;2023-12-14T19:20:15;2.10;;;1.20;;
16524;SDS011;8375;33.594;-117.718;2023-12-14T19:22:44;2.67;;;1.17;;
16524;SDS011;8375;33.594;-117.718;2023-12-14T19:25:12;3.93;;;1.10;;
16524;SDS011;8375;33.594;-117.718;2023-12-14T19:27:41;2.67;;;0.90;;
16524;SDS011;8375;33.594;-117.718;2023-12-14T19:30:17;4.30;;;1.00;;
16524;SDS011;8375;33.594;-117.718;2023-12-14T19:32:46;2.03;;;1.10;;
16524;SDS011;8375;33.594;-117.718;2023-12-14T19:35:16;3.73;;;1.07;;
16524;SDS011;8375;33.594;-117.718;2023-12-14T19:37:45;2.63;;;1.23;;
16524;SDS011;8375;33.594;-117.718;2023-12-14T19:40:15;1.90;;;1.07;;
16524;SDS011;8375;33.594;-117.718;2023-12-14T19:42:44;3.00;;;1.13;;
16524;SDS011;8375;33.594;-117.718;2023-12-14T19:45:12;2.40;;;1.10;;
16524;SDS011;8375;33.594;-117.718;2023-12-14T19:47:42;3.53;;;1.30;;
16524;SDS011;8375;33.594;-117.718;2023-12-14T19:50:11;2.90;;;1.10;;
16524;SDS011;8375;33.594;-117.718;2023-12-14T19:52:41;1.53;;;1.20;;
16524;SDS011;8375;33.594;-117.718;2023-12-14T19:55:10;2.00;;;1.43;;
16524;SDS011;8375;33.594;-117.718;2023-12-14T19:57:39;3.60;;;1.57;;
16524;SDS011;8375;33.594;-117.718;2023-12-14T20:00:09;4.00;;;1.20;;
16524;SDS011;8375;33.594;-117.718;2023-12-14T20:02:38;3.17;;;1.17;;
16524;SDS011;8375;33.594;-117.718;2023-12-14T20:05:07;2.37;;;1.10;;
16524;SDS011;8375;33.594;-117.718;2023-12-14T20:07:35;3.73;;;1.13;;
16524;SDS011;8375;33.594;-117.718;2023-12-14T20:10:06;2.93;;;1.20;;
16524;SDS011;8375;33.594;-117.718;2023-12-14T20:12:36;2.93;;;1.20;;
16524;SDS011;8375;33.594;-117.718;2023-12-14T20:15:05;2.37;;;1.13;;
16524;SDS011;8375;33.594;-117.718;2023-12-14T20:17:38;1.93;;;1.27;;
16524;SDS011;8375;33.594;-117.718;2023-12-14T20:20:07;5.03;;;1.10;;
16524;SDS011;8375;33.594;-117.718;2023-12-14T20:22:36;3.27;;;1.10;;
16524;SDS011;8375;33.594;-117.718;2023-12-14T20:25:07;2.10;;;1.10;;
16524;SDS011;8375;33.594;-117.718;2023-12-14T20:27:36;4.83;;;1.30;;
16524;SDS011;8375;33.594;-117.718;2023-12-14T20:30:05;3.23;;;1.17;;
16524;SDS011;8375;33.594;-117.718;2023-12-14T20:32:34;1.63;;;1.10;;
16524;SDS011;8375;33.594;-117.718;2023-12-14T20:35:03;5.20;;;1.00;;
16524;SDS011;8375;33.594;-117.718;2023-12-14T20:37:32;3.87;;;0.80;;
16524;SDS011;8375;33.594;-117.718;2023-12-14T20:40:10;1.17;;;0.90;;
16524;SDS011;8375;33.594;-117.718;2023-12-14T20:42:39;2.80;;;0.90;;
16524;SDS011;8375;33.594;-117.718;2023-12-14T20:45:08;2.53;;;0.93;;
16524;SDS011;8375;33.594;-117.718;2023-12-14T20:47:38;1.73;;;0.90;;
16524;SDS011;8375;33.594;-117.718;2023-12-14T20:50:07;2.50;;;1.13;;
16524;SDS011;8375;33.594;-117.718;2023-12-14T20:52:36;2.73;;;0.97;;
16524;SDS011;8375;33.594;-117.718;2023-12-14T20:55:07;1.27;;;0.87;;
16524;SDS011;8375;33.594;-117.718;2023-12-14T20:57:38;3.87;;;1.10;;
16524;SDS011;8375;33.594;-117.718;2023-12-14T21:00:07;1.27;;;0.97;;
16524;SDS011;8375;33.594;-117.718;2023-12-14T21:02:37;3.43;;;1.20;;
16524;SDS011;8375;33.594;-117.718;2023-12-14T21:05:06;2.20;;;0.93;;
16524;SDS011;8375;33.594;-117.718;2023-12-14T21:07:35;2.70;;;1.43;;
16524;SDS011;8375;33.594;-117.718;2023-12-14T21:10:04;2.03;;;1.17;;
16524;SDS011;8375;33.594;-117.718;2023-12-14T21:12:34;2.97;;;1.10;;
16524;SDS011;8375;33.594;-117.718;2023-12-14T21:15:03;3.13;;;1.37;;
16524;SDS011;8375;33.594;-117.718;2023-12-14T21:17:33;3.40;;;1.57;;
16524;SDS011;8375;33.594;-117.718;2023-12-14T21:20:02;2.57;;;1.53;;
16524;SDS011;8375;33.594;-117.718;2023-12-14T21:22:32;4.37;;;1.90;;
16524;SDS011;8375;33.594;-117.718;2023-12-14T21:25:01;3.63;;;1.57;;
16524;SDS011;8375;33.594;-117.718;2023-12-14T21:27:30;2.53;;;1.50;;
16524;SDS011;8375;33.594;-117.718;2023-12-14T21:30:17;3.73;;;1.57;;